x

Cape Elizabeth- 45nm Nw Of Aberdeen, Wa (46041) Wave Buoy

4:50am - Mon 6th Jul 2015 All times are PDT. -7 hours from GMT.

  • Sig Wave height 4.3ft
  • Swell Direction
  • Peak Period 8s
  • Average Period 7s
  • Wind
    9mph, 11mph gusts
  • Sea Temp 60°f
  • Air Temp 60°f
  • Sea Pressure 1014.9mb
  • Cape Elizabeth- 45nm Nw Of Aberdeen, Wa
  • Cape Elizabeth- 45nm Nw Of Aberdeen, Wa

More Historic Weather Station data

Upgrade to MSW Pro to gain access to the past 30 days of data for over 8000 Wavebouys and Weather Stations around the globe.

Join Pro

Comparision Forecast

View Surf forecast
   
Mon 07/06 4:50am 4.5ft 8s 7s 9 11 mph 1014.9mb 60f 60f
3:50am 4ft 8s 6s 7 9 mph 1014.7mb 60f 60f
2:50am 4.5ft 9s 7s 7 9 mph 1014.6mb 59f 60f
1:50am 3.5ft 8s 7s 9 11 mph 1014.3mb 59f 60f
12:50am 4ft 9s 6s 7
mph
1014.2mb 60f 60f
Sun 07/05 11:50pm 4ft 9s 7s 7 11 mph 1014mb 60f 60f
10:50pm 4.5ft 8s 7s 7 9 mph 1013.8mb 60f 60f
9:50pm 4ft 8s 7s 9 11 mph 1013.4mb 61f 60f
8:50pm 4.5ft 8s 7s 9 11 mph 1013mb 61f 60f
7:50pm 4.5ft 9s 7s 4 7 mph 1012.7mb 60f 61f
6:50pm 5ft 9s 7s 7 9 mph 1012.3mb 61f 61f
5:50pm 5ft 8s 7s 7 9 mph 1012.1mb 61f 61f
4:50pm 5.5ft 9s 7s 7
mph
1012mb 61f 61f
3:50pm 6ft 8s 7s 4
mph
1011.8mb 61f 61f
2:50pm 5ft 9s 7s 2
mph
1011.6mb 60f 61f
1:50pm 5.5ft 8s 7s 7
mph
1011.5mb 59f 59f
12:50pm 6ft 8s 7s 7 9 mph 1011.3mb 58f 57f
11:50am 5ft 9s 7s 9
mph
1011.3mb 58f 56f
10:50am 5.5ft 8s 7s 9 11 mph 1011.1mb 58f 56f
9:50am 6ft 9s 7s 9 11 mph 1011mb 58f 55f
8:50am 6ft 8s 7s 11 13 mph 1010.5mb 58f 55f
7:50am 6ft 9s 7s 9 11 mph 1010.3mb 58f 55f
6:50am 6ft 9s 7s 9 11 mph 1009.8mb 58f 55f
5:50am 6ft 9s 7s 9 11 mph 1009.2mb 58f 55f
4:50am 6ft 9s 7s 7 9 mph 1008.7mb 57f 57f
3:50am 7ft 8s 7s 4
mph
1008.6mb 58f 57f
2:50am 7.5ft 9s 7s  -  2 mph 1008.7mb 58f 57f
1:50am 7ft 8s 7s 2
mph
1008.7mb 58f 58f
12:50am 6.5ft 9s 7s 2
mph
1009.1mb 58f 58f
Sat 07/04 11:50pm 6.5ft 9s 7s 4
mph
1009.2mb 59f 58f
10:50pm 6ft 8s 6s 9 11 mph 1009.2mb 59f 59f
9:50pm 5.5ft 8s 7s 7 9 mph 1009.3mb 60f 59f
8:50pm 5ft 8s 6s 9 11 mph 1009.2mb 60f 59f
7:50pm 5ft 9s 6s 9 11 mph 1009.3mb 60f 60f
6:50pm 5ft 9s 7s 9 11 mph 1009.3mb 61f 60f
5:50pm 5ft 8s 7s 9
mph
1009.6mb 62f 61f
4:50pm 5ft 8s 7s 9 11 mph 1009.9mb 62f 61f
3:50pm 5ft 9s 7s 4 7 mph 1010.2mb 62f 61f
2:50pm 5.5ft 9s 7s 4
mph
1011mb 61f 60f
1:50pm 5.5ft 8s 7s 4 7 mph 1011.4mb 61f 59f
12:50pm 6ft 8s 7s 4
mph
1011.7mb 60f 58f
11:50am 6ft 8s 7s 7
mph
1011.9mb 59f 57f
10:50am 6.5ft 9s 7s 7
mph
1012.3mb 59f 57f
9:50am 6ft 8s 7s 9 11 mph 1012.4mb 58f 56f
8:50am 6ft 9s 7s 9 11 mph 1012.5mb 58f 56f
7:50am 6ft 9s 7s 9 11 mph 1012.3mb 58f 56f
6:50am 6.5ft 9s 7s 9 11 mph 1012.1mb 58f 56f
5:50am 7ft 8s 7s 7
mph
1011.7mb 58f 57f
4:50am 6ft 9s 7s 2 7 mph 1011.7mb 58f 57f
3:50am 6.5ft 9s 7s 2 4 mph 1011.8mb 58f 57f
2:50am 6.5ft 8s 6s  -  2 mph 1011.8mb 58f 58f
1:50am 7ft 8s 7s 2 4 mph 1012.2mb 58f 58f
12:50am 6.5ft 8s 6s 4 7 mph 1012.4mb 58f 58f
Fri 07/03 11:50pm 6.5ft 8s 6s 7
mph
1012.9mb 58f 59f
10:50pm 6.5ft 8s 6s 11 13 mph 1013mb 58f 59f
9:50pm 6ft 8s 6s 13 16 mph 1013.1mb 58f 59f
8:50pm 6ft 8s 6s 13 18 mph 1012.9mb 58f 59f
7:50pm 6ft 7s 6s 16 20 mph 1012.9mb 58f 59f
6:50pm 6ft 8s 6s 16 20 mph 1013.2mb 58f 59f
5:50pm 6ft 8s 6s 18 20 mph 1013.4mb 57f 59f
4:50pm 6.5ft 8s 6s 18 22 mph 1013.9mb 57f 59f
3:50pm 6ft 8s 6s 16 20 mph 1014.4mb 58f 59f
2:50pm 6ft 8s 6s 13 18 mph 1014.8mb 58f 60f
1:50pm 6ft 8s 6s 11 13 mph 1015.3mb 58f 60f
12:50pm 6ft 8s 6s 9 11 mph 1015.4mb 58f 59f
11:50am 6.5ft 8s 6s 11 13 mph 1015.5mb 58f 59f
10:50am 6.5ft 8s 6s 7 9 mph 1015.9mb 58f 59f
9:50am 7ft 8s 6s 7 9 mph 1016.1mb 57f 59f
8:50am 6ft 8s 6s 9
mph
1016mb 57f 59f
7:50am 7ft 8s 7s 7 9 mph 1015.8mb 57f 58f
6:50am 7ft 8s 7s 9
mph
1015.5mb 57f 58f
5:50am 7ft 9s 7s 7 9 mph 1015.2mb 57f 58f
4:50am 7.5ft 8s 7s 9 11 mph 1015.1mb 57f 58f
3:50am 7ft 8s 7s 11 13 mph 1014.8mb 57f 58f
2:50am 7.5ft 8s 7s 13
mph
1014.8mb 57f 58f
1:50am 6.5ft 8s 6s 11 13 mph 1014.9mb 57f 58f
12:50am 7ft 8s 6s 13 16 mph 1015.1mb 57f 59f
Thu 07/02 11:50pm 6.5ft 8s 6s 13 18 mph 1015.3mb 57f 59f
10:50pm 6ft 8s 6s 16 18 mph 1015.4mb 58f 59f
9:50pm 5.5ft 8s 5s 18 20 mph 1015.3mb 58f 59f
8:50pm 5.5ft 7s 5s 18 20 mph 1015.3mb 58f 59f
7:50pm 5.5ft 8s 5s 18 22 mph 1015.4mb 58f 59f
6:50pm 5ft 8s 6s 18 20 mph 1015.9mb 58f 60f
5:50pm 5ft 8s 5s 16 20 mph 1016.1mb 58f 60f
4:50pm 5ft 8s 5s 16 20 mph 1016.4mb 58f 60f
3:50pm 5ft 8s 6s 16 18 mph 1016.9mb 58f 60f
2:50pm 5ft 8s 6s 13 16 mph 1017.1mb 58f 60f
1:50pm 6ft 8s 6s 11 13 mph 1017.5mb 58f 60f
12:50pm 6ft 8s 6s 9 11 mph 1017.4mb 58f 59f